createdAt,value
2023-01-12T00:02:11.580Z,13.27
2023-01-12T00:09:49.129Z,10.40
2023-01-12T00:12:48.515Z,9.33
2023-01-12T00:15:15.854Z,15.20
2023-01-12T00:21:15.999Z,9.63
2023-01-12T00:24:08.834Z,12.77
2023-01-12T00:30:11.803Z,10.60
2023-01-12T00:32:39.239Z,10.40
2023-01-12T00:39:11.654Z,7.93
2023-01-12T00:50:32.540Z,13.93
2023-01-12T00:54:03.241Z,8.43
2023-01-12T00:56:31.671Z,8.87
2023-01-12T00:59:24.847Z,10.57
2023-01-12T01:01:52.184Z,11.23
2023-01-12T01:04:39.544Z,12.57
2023-01-12T01:07:56.231Z,12.73
2023-01-12T01:10:23.555Z,13.10
2023-01-12T01:17:23.591Z,13.50
2023-01-12T01:20:17.198Z,12.47
2023-01-12T01:23:10.263Z,10.57
2023-01-12T01:29:49.085Z,17.40
2023-01-12T01:32:16.608Z,8.77
2023-01-12T01:34:44.050Z,10.63
2023-01-12T01:37:36.867Z,10.93
2023-01-12T01:40:05.147Z,11.93
2023-01-12T01:42:43.415Z,10.73
2023-01-12T01:49:59.419Z,9.13
2023-01-12T01:56:20.087Z,10.40
2023-01-12T01:58:59.624Z,10.73
2023-01-12T02:02:10.598Z,7.20
2023-01-12T02:05:28.920Z,14.97
2023-01-12T02:08:02.826Z,10.30
2023-01-12T02:10:30.326Z,14.00
2023-01-12T02:16:27.714Z,14.90
2023-01-12T02:19:17.283Z,10.47
2023-01-12T02:25:49.712Z,12.43
2023-01-12T02:28:54.479Z,12.07
2023-01-12T02:31:22.841Z,15.20
2023-01-12T02:34:30.405Z,13.93
2023-01-12T02:37:23.027Z,6.63
2023-01-12T02:40:37.233Z,14.93
2023-01-12T02:43:17.444Z,10.57
2023-01-12T02:46:03.341Z,10.87
2023-01-12T02:49:00.174Z,12.37
2023-01-12T02:51:46.633Z,15.00
2023-01-12T02:54:18.594Z,13.03
2023-01-12T02:56:53.056Z,12.73
2023-01-12T02:59:27.805Z,10.50
2023-01-12T03:02:04.080Z,14.47
2023-01-12T03:05:44.532Z,10.00
2023-01-12T03:09:02.972Z,14.13
2023-01-12T03:11:31.191Z,9.57
2023-01-12T03:18:12.046Z,11.87
2023-01-12T03:21:00.544Z,10.57
2023-01-12T03:24:45.530Z,9.80
2023-01-12T03:27:26.340Z,10.17
2023-01-12T03:30:21.035Z,13.77
2023-01-12T03:32:50.172Z,7.77
2023-01-12T03:35:24.345Z,9.43
2023-01-12T03:37:59.902Z,8.17
2023-01-12T03:40:37.793Z,8.43
2023-01-12T03:43:42.596Z,10.30
2023-01-12T03:46:25.706Z,14.03
2023-01-12T03:49:44.717Z,15.30
2023-01-12T03:52:12.945Z,12.97
2023-01-12T03:54:41.619Z,19.40
2023-01-12T03:57:12.060Z,7.90
2023-01-12T03:59:40.488Z,13.27
2023-01-12T04:02:08.030Z,11.40
2023-01-12T04:04:35.552Z,10.97
2023-01-12T04:07:02.939Z,7.33
2023-01-12T04:10:21.633Z,12.57
2023-01-12T04:12:49.134Z,13.70
2023-01-12T04:15:16.484Z,10.43
2023-01-12T04:17:43.885Z,14.33
2023-01-12T04:20:15.130Z,10.10
2023-01-12T04:22:44.290Z,8.97
2023-01-12T04:25:12.701Z,10.87
2023-01-12T04:27:47.886Z,11.43
2023-01-12T04:30:18.730Z,8.13
2023-01-12T04:32:46.441Z,10.50
2023-01-12T04:35:13.866Z,10.57
2023-01-12T04:37:41.504Z,10.60
2023-01-12T04:40:10.414Z,16.57
2023-01-12T04:46:22.729Z,7.90
2023-01-12T04:48:50.421Z,7.97
2023-01-12T04:52:09.545Z,11.80
2023-01-12T04:54:37.270Z,9.07
2023-01-12T04:57:07.485Z,8.20
2023-01-12T04:59:34.790Z,8.20
2023-01-12T05:02:02.203Z,12.50
2023-01-12T05:04:29.542Z,8.63
2023-01-12T05:06:57.121Z,8.00
2023-01-12T05:12:34.903Z,12.10
2023-01-12T05:15:03.603Z,8.33
2023-01-12T05:17:59.665Z,7.83
2023-01-12T05:20:26.969Z,11.20
2023-01-12T05:22:58.341Z,11.23
2023-01-12T05:25:50.944Z,9.60
2023-01-12T05:28:18.257Z,7.00
2023-01-12T05:30:45.889Z,10.93
2023-01-12T05:36:26.378Z,7.70
2023-01-12T05:38:53.935Z,9.37
2023-01-12T05:41:22.947Z,9.53
2023-01-12T05:43:50.352Z,8.43
2023-01-12T05:46:22.331Z,11.07
2023-01-12T05:48:51.329Z,10.77
2023-01-12T05:55:20.179Z,13.53
2023-01-12T05:57:47.567Z,11.03
2023-01-12T06:00:15.316Z,6.53
2023-01-12T06:03:08.031Z,10.33
2023-01-12T06:05:35.445Z,9.87
2023-01-12T06:09:18.743Z,8.73
2023-01-12T06:25:03.122Z,4.90
2023-01-12T06:27:35.413Z,11.17
2023-01-12T06:30:02.797Z,11.03
2023-01-12T06:37:54.721Z,7.10
2023-01-12T06:58:17.852Z,5.77
2023-01-12T07:00:45.335Z,6.67
2023-01-12T07:03:20.144Z,6.40
2023-01-12T07:09:00.558Z,10.40
2023-01-12T07:14:37.894Z,11.27
2023-01-12T07:20:30.493Z,9.67
2023-01-12T07:30:25.216Z,12.47
2023-01-12T07:36:05.616Z,8.03
2023-01-12T07:38:33.409Z,10.10
2023-01-12T07:41:02.239Z,8.60
2023-01-12T07:43:32.241Z,9.20
2023-01-12T07:46:00.099Z,7.60
2023-01-12T07:48:30.331Z,7.77
2023-01-12T07:50:59.175Z,11.10
2023-01-12T07:53:26.610Z,6.03
2023-01-12T07:55:54.050Z,6.40
2023-01-12T07:58:48.163Z,8.37
2023-01-12T08:01:43.829Z,8.57
2023-01-12T08:04:37.889Z,5.67
2023-01-12T08:07:05.583Z,7.83
2023-01-12T08:09:33.265Z,6.67
2023-01-12T08:12:03.841Z,6.57
2023-01-12T08:14:37.008Z,9.73
2023-01-12T08:17:10.886Z,5.10
2023-01-12T08:19:46.759Z,6.47
2023-01-12T08:22:20.280Z,7.17
2023-01-12T08:24:52.282Z,5.10
2023-01-12T08:27:22.973Z,7.53
2023-01-12T08:29:54.867Z,6.23
2023-01-12T08:32:23.432Z,4.97
2023-01-12T08:34:53.523Z,7.80
2023-01-12T08:37:23.257Z,6.27
2023-01-12T08:40:06.260Z,4.33
2023-01-12T08:43:43.055Z,4.63
2023-01-12T08:46:10.695Z,4.20
2023-01-12T08:48:38.983Z,5.03
2023-01-12T08:51:08.177Z,4.67
2023-01-12T08:53:35.839Z,4.90
2023-01-12T08:56:03.285Z,4.60
2023-01-12T08:58:31.342Z,4.90
2023-01-12T09:01:07.748Z,4.87
2023-01-12T09:03:37.035Z,5.23
2023-01-12T09:06:17.142Z,4.80
2023-01-12T09:08:45.866Z,5.03
2023-01-12T09:11:15.469Z,4.70
2023-01-12T09:14:02.386Z,4.47
2023-01-12T09:20:10.940Z,4.40
2023-01-12T09:22:39.103Z,4.27
2023-01-12T09:25:06.948Z,4.30
2023-01-12T09:27:34.335Z,4.37
2023-01-12T09:30:01.815Z,4.93
2023-01-12T09:32:36.902Z,4.43
2023-01-12T09:35:04.931Z,3.80
2023-01-12T09:37:32.278Z,4.23
2023-01-12T09:40:00.408Z,4.30
2023-01-12T09:42:46.593Z,4.03
2023-01-12T09:45:42.067Z,4.60
2023-01-12T09:48:12.755Z,4.40
2023-01-12T09:50:50.365Z,4.23
2023-01-12T09:53:41.083Z,4.67
2023-01-12T09:56:08.568Z,4.30
2023-01-12T09:59:00.939Z,4.40
2023-01-12T10:01:30.101Z,5.30
2023-01-12T10:04:01.354Z,5.10
2023-01-12T10:06:29.694Z,3.87
2023-01-12T10:08:59.822Z,5.40
2023-01-12T10:11:38.393Z,5.00
2023-01-12T10:14:14.801Z,4.83
2023-01-12T10:17:12.621Z,4.23
2023-01-12T10:19:46.916Z,4.80
2023-01-12T10:22:40.316Z,5.20
2023-01-12T10:25:16.553Z,5.20
2023-01-12T10:27:48.327Z,4.77
2023-01-12T10:30:20.332Z,4.70
2023-01-12T10:32:47.629Z,4.53
2023-01-12T10:35:18.043Z,4.80
2023-01-12T10:38:27.698Z,4.80
2023-01-12T10:41:16.849Z,4.53
2023-01-12T10:43:46.631Z,5.10
2023-01-12T10:46:23.471Z,6.00
2023-01-12T10:48:54.930Z,6.00
2023-01-12T10:51:34.684Z,5.63
2023-01-12T10:54:17.621Z,5.70
2023-01-12T10:56:59.941Z,5.40
2023-01-12T10:59:31.436Z,5.20
2023-01-12T11:02:15.893Z,4.87
2023-01-12T11:05:49.192Z,5.67
2023-01-12T11:08:26.789Z,4.90
2023-01-12T11:15:39.233Z,4.80
2023-01-12T11:18:43.809Z,4.73
2023-01-12T11:21:24.796Z,5.03
2023-01-12T11:24:16.944Z,5.37
2023-01-12T11:26:50.351Z,5.43
2023-01-12T11:29:35.994Z,5.47
2023-01-12T11:40:31.430Z,5.10
2023-01-12T11:43:32.605Z,5.00
2023-01-12T11:46:16.952Z,4.80
2023-01-12T11:49:09.745Z,4.40
2023-01-12T11:51:37.773Z,5.53
2023-01-12T11:54:07.523Z,5.90
2023-01-12T11:57:02.810Z,5.87
2023-01-12T12:00:10.573Z,6.20
2023-01-12T12:02:58.856Z,5.73
2023-01-12T12:05:41.447Z,5.23
2023-01-12T12:08:41.477Z,5.30
2023-01-12T12:14:47.579Z,5.20
2023-01-12T12:21:28.822Z,4.80
2023-01-12T12:24:26.692Z,5.07
2023-01-12T12:27:22.261Z,5.63
2023-01-12T12:30:14.507Z,4.87
2023-01-12T12:32:57.595Z,4.70
2023-01-12T12:35:49.277Z,5.00
2023-01-12T12:39:14.132Z,5.10
2023-01-12T12:42:33.975Z,5.00
2023-01-12T12:45:24.828Z,4.87
2023-01-12T12:48:27.983Z,4.60
2023-01-12T12:51:06.982Z,4.90
2023-01-12T12:53:35.775Z,5.30
2023-01-12T12:56:06.909Z,5.13
2023-01-12T12:58:45.311Z,5.27
2023-01-12T13:01:22.999Z,5.70
2023-01-12T13:04:02.212Z,4.90
2023-01-12T13:06:38.762Z,5.63
2023-01-12T13:09:10.500Z,5.30
2023-01-12T13:11:59.655Z,5.37
2023-01-12T13:14:31.455Z,4.93
2023-01-12T13:17:24.115Z,5.50
2023-01-12T13:20:02.142Z,5.13
2023-01-12T13:22:32.833Z,5.70
2023-01-12T13:25:04.050Z,4.70
2023-01-12T13:27:56.011Z,5.20
2023-01-12T13:30:30.698Z,5.10
2023-01-12T13:33:19.690Z,5.03
2023-01-12T13:35:47.128Z,5.23
2023-01-12T13:38:39.009Z,4.87
2023-01-12T13:41:38.905Z,5.30
2023-01-12T13:44:10.730Z,4.70
2023-01-12T13:46:53.261Z,4.70
2023-01-12T13:54:10.410Z,5.20
2023-01-12T13:56:38.392Z,5.17
2023-01-12T13:59:08.353Z,4.93
2023-01-12T14:01:40.242Z,4.77
2023-01-12T14:04:13.732Z,4.70
2023-01-12T14:07:09.363Z,4.63
2023-01-12T14:09:55.356Z,27.30
2023-01-12T14:12:42.049Z,7.63
2023-01-12T14:15:54.851Z,4.60
2023-01-12T14:18:24.817Z,4.03
2023-01-12T14:20:53.815Z,4.03
2023-01-12T14:23:27.216Z,4.20
2023-01-12T14:26:06.572Z,4.00
2023-01-12T14:28:35.641Z,4.60
2023-01-12T14:31:06.761Z,4.50
2023-01-12T14:33:37.265Z,4.90
2023-01-12T14:36:12.978Z,4.30
2023-01-12T14:38:42.447Z,4.30
2023-01-12T14:41:43.747Z,4.40
2023-01-12T14:44:39.636Z,4.27
2023-01-12T14:47:07.763Z,4.53
2023-01-12T14:49:39.616Z,4.63
2023-01-12T14:52:15.163Z,4.03
2023-01-12T14:54:43.479Z,3.90
2023-01-12T14:57:30.039Z,4.60
2023-01-12T14:59:57.514Z,3.87
2023-01-12T15:02:37.270Z,4.10
2023-01-12T15:05:10.664Z,3.70
2023-01-12T15:07:54.316Z,3.70
2023-01-12T15:10:26.591Z,4.00
2023-01-12T15:12:56.803Z,4.03
2023-01-12T15:15:25.239Z,3.90
2023-01-12T15:18:14.623Z,3.90
2023-01-12T15:21:03.622Z,3.40
2023-01-12T15:28:22.758Z,4.63
2023-01-12T15:34:17.832Z,3.77
2023-01-12T15:36:45.241Z,4.20
2023-01-12T15:39:16.034Z,4.63
2023-01-12T15:42:21.820Z,3.80
2023-01-12T15:44:51.427Z,4.57
2023-01-12T15:47:19.737Z,3.93
2023-01-12T15:49:49.046Z,4.20
2023-01-12T15:52:20.511Z,4.27
2023-01-12T15:54:48.097Z,4.30
2023-01-12T15:57:16.235Z,4.30
2023-01-12T15:59:43.913Z,4.40
2023-01-12T16:02:34.869Z,4.23
2023-01-12T16:05:04.583Z,4.43
2023-01-12T16:07:32.244Z,4.50
2023-01-12T16:09:59.883Z,4.20
2023-01-12T16:12:27.484Z,4.13
2023-01-12T16:14:58.767Z,4.10
2023-01-12T16:17:26.479Z,4.43
2023-01-12T16:19:54.301Z,4.57
2023-01-12T16:22:26.202Z,4.50
2023-01-12T16:24:56.434Z,4.07
2023-01-12T16:27:25.759Z,3.97
2023-01-12T16:29:54.174Z,4.30
2023-01-12T16:32:26.283Z,4.30
2023-01-12T16:34:53.901Z,4.63
2023-01-12T16:37:23.136Z,4.03
2023-01-12T16:39:50.712Z,4.57
2023-01-12T16:42:18.102Z,4.70
2023-01-12T16:44:48.270Z,4.57
2023-01-12T16:47:17.448Z,4.30
2023-01-12T16:49:48.791Z,3.53
2023-01-12T16:52:18.382Z,4.43
2023-01-12T16:54:46.379Z,5.00
2023-01-12T16:57:16.099Z,5.13
2023-01-12T16:59:44.127Z,4.87
2023-01-12T17:02:15.033Z,4.40
2023-01-12T17:04:45.592Z,5.03
2023-01-12T17:07:13.781Z,4.60
2023-01-12T17:09:41.385Z,4.10
2023-01-12T17:12:09.237Z,4.23
2023-01-12T17:14:37.333Z,4.13
2023-01-12T17:17:08.255Z,4.03
2023-01-12T17:19:37.519Z,4.27
2023-01-12T17:22:07.741Z,3.80
2023-01-12T17:24:37.321Z,4.30
2023-01-12T17:27:06.243Z,4.20
2023-01-12T17:29:34.078Z,3.73
2023-01-12T17:32:06.773Z,4.20
2023-01-12T17:34:38.287Z,3.97
2023-01-12T17:37:08.585Z,3.80
2023-01-12T17:39:40.102Z,3.60
2023-01-12T17:42:26.606Z,3.80
2023-01-12T17:44:55.381Z,3.87
2023-01-12T17:47:23.753Z,3.27
2023-01-12T17:49:52.519Z,3.83
2023-01-12T17:52:20.615Z,3.80
2023-01-12T17:54:48.195Z,3.73
2023-01-12T17:57:15.614Z,3.97
2023-01-12T17:59:43.414Z,3.50
2023-01-12T18:02:15.362Z,4.17
2023-01-12T18:04:45.099Z,3.90
2023-01-12T18:07:12.545Z,4.10
2023-01-12T18:09:44.791Z,3.73
2023-01-12T18:12:12.916Z,3.70
2023-01-12T18:14:40.365Z,4.07
2023-01-12T18:17:13.408Z,4.00
2023-01-12T18:19:44.591Z,3.90
2023-01-12T18:22:12.109Z,3.70
2023-01-12T18:24:39.664Z,3.87
2023-01-12T18:27:12.263Z,4.00
2023-01-12T18:29:46.137Z,4.20
2023-01-12T18:32:13.921Z,3.83
2023-01-12T18:34:46.735Z,3.90
2023-01-12T18:37:16.521Z,4.13
2023-01-12T18:39:45.564Z,4.40
2023-01-12T18:42:32.420Z,4.07
2023-01-12T18:45:01.075Z,4.63
2023-01-12T18:47:48.583Z,4.17
2023-01-12T18:50:36.440Z,4.47
2023-01-12T18:53:23.554Z,4.33
2023-01-12T19:04:03.136Z,4.20
2023-01-12T19:07:38.447Z,4.20
2023-01-12T19:10:09.096Z,7.27
2023-01-12T19:40:45.577Z,3.73
2023-01-12T19:43:19.576Z,4.07
2023-01-12T19:45:49.061Z,4.27
2023-01-12T19:48:19.402Z,3.93
2023-01-12T19:50:47.891Z,4.00
2023-01-12T19:54:01.003Z,3.80
2023-01-12T19:56:30.681Z,3.90
2023-01-12T19:58:58.066Z,4.07
2023-01-12T20:01:26.126Z,4.40
2023-01-12T20:03:53.608Z,4.83
2023-01-12T20:06:20.937Z,4.57
2023-01-12T20:08:48.507Z,4.80
2023-01-12T21:15:37.429Z,4.33
2023-01-12T21:30:19.563Z,4.20
2023-01-12T21:33:14.004Z,4.40
2023-01-12T21:36:33.402Z,6.17
2023-01-12T21:39:39.377Z,5.00
2023-01-12T21:46:58.156Z,4.87
2023-01-12T21:49:42.086Z,4.87
2023-01-12T21:52:10.909Z,4.97
2023-01-12T21:54:38.624Z,5.57
2023-01-12T22:00:30.192Z,4.47
2023-01-12T22:02:57.616Z,4.43
2023-01-12T22:05:50.640Z,5.00
2023-01-12T22:08:18.363Z,4.10
2023-01-12T22:10:46.239Z,4.17
2023-01-12T22:16:47.925Z,4.57
2023-01-12T22:19:23.694Z,3.67
2023-01-12T22:24:52.662Z,3.73
2023-01-12T22:27:19.997Z,4.33
2023-01-12T22:31:02.193Z,4.80
2023-01-12T22:33:45.632Z,4.43
2023-01-12T22:36:13.141Z,4.40
2023-01-12T22:46:05.251Z,6.67
2023-01-12T22:48:32.619Z,4.20
2023-01-12T22:51:03.358Z,3.60
2023-01-12T22:53:30.989Z,3.80
2023-01-12T22:56:03.498Z,4.03
2023-01-12T23:05:55.896Z,3.60
2023-01-12T23:19:28.481Z,3.90
2023-01-12T23:21:57.112Z,5.30
2023-01-12T23:24:24.497Z,4.00
2023-01-12T23:31:24.160Z,4.40
2023-01-12T23:33:57.133Z,4.20
2023-01-12T23:36:26.389Z,4.63
2023-01-12T23:38:59.242Z,4.00
2023-01-12T23:45:53.519Z,3.73
2023-01-12T23:48:22.492Z,4.50
2023-01-12T23:50:58.227Z,3.87
2023-01-12T23:54:18.243Z,4.07
2023-01-12T23:56:45.524Z,4.17
